In Rescue
 
Open Full Screen Window  High Contrast Mode
Wind Gusting 11 knots
04
October 25, 2021 4:05 PM CDT
Weather Information
Wind Direction
  VRB °
Wind Speed
  04 kt (5 mph)
Wind Gust
  11 kt (13 mph)
Altimeter
30.13 in
Visibility
10 SM
Temperature
10° C
50° F
Dewpoint
-01° C
30° F
Humidity
47%
1hr Rain Fall
00.02 in.
24hr Rain Fall
00.48 in.
Sky Condition
Clear
VFR

METAR KCFE 252105Z AUTO VRB04G11KT 10SM CLR 10/M01 A3013 RMK AO2 P0002

FAA Disclaimer: The data displayed is for advisory purposes only and is not to be used for flight planning or operations.